sensor_id;sensor_type;location;lat;lon;timestamp;P1;durP1;ratioP1;P2;durP2;ratioP2
37781;SDS011;23621;50.878;4.584;2024-02-14T00:01:42;3.95;;;3.55;;
37781;SDS011;23621;50.878;4.584;2024-02-14T00:03:43;3.67;;;3.28;;
37781;SDS011;23621;50.878;4.584;2024-02-14T00:05:44;4.35;;;3.70;;
37781;SDS011;23621;50.878;4.584;2024-02-14T00:07:45;4.18;;;3.78;;
37781;SDS011;23621;50.878;4.584;2024-02-14T00:09:46;6.22;;;3.80;;
37781;SDS011;23621;50.878;4.584;2024-02-14T00:11:47;4.13;;;3.72;;
37781;SDS011;23621;50.878;4.584;2024-02-14T00:13:47;7.70;;;3.83;;
37781;SDS011;23621;50.878;4.584;2024-02-14T00:15:50;3.92;;;3.53;;
37781;SDS011;23621;50.878;4.584;2024-02-14T00:17:51;4.40;;;3.95;;
37781;SDS011;23621;50.878;4.584;2024-02-14T00:19:51;5.28;;;3.63;;
37781;SDS011;23621;50.878;4.584;2024-02-14T00:21:52;6.18;;;4.05;;
37781;SDS011;23621;50.878;4.584;2024-02-14T00:23:53;4.47;;;4.00;;
37781;SDS011;23621;50.878;4.584;2024-02-14T00:25:53;5.30;;;3.45;;
37781;SDS011;23621;50.878;4.584;2024-02-14T00:27:54;4.72;;;3.72;;
37781;SDS011;23621;50.878;4.584;2024-02-14T00:29:54;5.10;;;3.53;;
37781;SDS011;23621;50.878;4.584;2024-02-14T00:31:56;5.22;;;4.13;;
37781;SDS011;23621;50.878;4.584;2024-02-14T00:33:57;3.95;;;3.58;;
37781;SDS011;23621;50.878;4.584;2024-02-14T00:35:57;6.18;;;3.72;;
37781;SDS011;23621;50.878;4.584;2024-02-14T00:37:58;4.60;;;4.00;;
37781;SDS011;23621;50.878;4.584;2024-02-14T00:39:58;4.43;;;3.63;;
37781;SDS011;23621;50.878;4.584;2024-02-14T00:41:59;6.70;;;4.00;;
37781;SDS011;23621;50.878;4.584;2024-02-14T00:44:00;3.80;;;3.40;;
37781;SDS011;23621;50.878;4.584;2024-02-14T00:46:03;5.28;;;4.22;;
37781;SDS011;23621;50.878;4.584;2024-02-14T00:48:03;5.88;;;3.75;;
37781;SDS011;23621;50.878;4.584;2024-02-14T00:50:04;5.70;;;3.95;;
37781;SDS011;23621;50.878;4.584;2024-02-14T00:52:06;4.18;;;3.72;;
37781;SDS011;23621;50.878;4.584;2024-02-14T00:54:07;5.45;;;4.03;;
37781;SDS011;23621;50.878;4.584;2024-02-14T00:56:08;5.25;;;3.75;;
37781;SDS011;23621;50.878;4.584;2024-02-14T00:58:08;5.38;;;3.75;;
37781;SDS011;23621;50.878;4.584;2024-02-14T01:00:10;3.78;;;3.28;;
37781;SDS011;23621;50.878;4.584;2024-02-14T01:02:11;4.50;;;3.80;;
37781;SDS011;23621;50.878;4.584;2024-02-14T01:04:11;4.78;;;3.78;;
37781;SDS011;23621;50.878;4.584;2024-02-14T01:06:12;3.40;;;3.10;;
37781;SDS011;23621;50.878;4.584;2024-02-14T01:08:14;4.32;;;3.92;;
37781;SDS011;23621;50.878;4.584;2024-02-14T01:10:14;6.22;;;3.55;;
37781;SDS011;23621;50.878;4.584;2024-02-14T01:12:15;4.32;;;3.92;;
37781;SDS011;23621;50.878;4.584;2024-02-14T01:14:16;5.50;;;3.90;;
37781;SDS011;23621;50.878;4.584;2024-02-14T01:16:17;5.18;;;3.90;;
37781;SDS011;23621;50.878;4.584;2024-02-14T01:18:18;6.10;;;3.95;;
37781;SDS011;23621;50.878;4.584;2024-02-14T01:20:19;4.35;;;3.60;;
37781;SDS011;23621;50.878;4.584;2024-02-14T01:22:20;4.95;;;3.97;;
37781;SDS011;23621;50.878;4.584;2024-02-14T01:24:21;5.00;;;4.18;;
37781;SDS011;23621;50.878;4.584;2024-02-14T01:26:22;7.68;;;4.30;;
37781;SDS011;23621;50.878;4.584;2024-02-14T01:28:23;6.53;;;4.10;;
37781;SDS011;23621;50.878;4.584;2024-02-14T01:30:23;5.35;;;3.65;;
37781;SDS011;23621;50.878;4.584;2024-02-14T01:32:25;5.30;;;4.25;;
37781;SDS011;23621;50.878;4.584;2024-02-14T01:34:28;5.43;;;3.95;;
37781;SDS011;23621;50.878;4.584;2024-02-14T01:36:29;4.38;;;3.97;;
37781;SDS011;23621;50.878;4.584;2024-02-14T01:38:30;4.30;;;3.90;;
37781;SDS011;23621;50.878;4.584;2024-02-14T01:40:33;5.68;;;4.38;;
37781;SDS011;23621;50.878;4.584;2024-02-14T01:42:34;4.97;;;4.13;;
37781;SDS011;23621;50.878;4.584;2024-02-14T01:44:34;6.43;;;3.95;;
37781;SDS011;23621;50.878;4.584;2024-02-14T01:46:36;4.85;;;4.13;;
37781;SDS011;23621;50.878;4.584;2024-02-14T01:48:38;4.63;;;4.22;;
37781;SDS011;23621;50.878;4.584;2024-02-14T01:50:41;4.53;;;4.13;;
37781;SDS011;23621;50.878;4.584;2024-02-14T01:52:42;4.90;;;4.40;;
37781;SDS011;23621;50.878;4.584;2024-02-14T01:54:44;4.28;;;3.80;;
37781;SDS011;23621;50.878;4.584;2024-02-14T01:56:45;5.50;;;4.10;;
37781;SDS011;23621;50.878;4.584;2024-02-14T01:58:46;8.55;;;4.63;;
37781;SDS011;23621;50.878;4.584;2024-02-14T02:00:47;5.28;;;4.70;;
37781;SDS011;23621;50.878;4.584;2024-02-14T02:02:48;6.28;;;4.82;;
37781;SDS011;23621;50.878;4.584;2024-02-14T02:04:49;7.18;;;5.35;;
37781;SDS011;23621;50.878;4.584;2024-02-14T02:06:50;5.05;;;4.57;;
37781;SDS011;23621;50.878;4.584;2024-02-14T02:08:52;6.05;;;4.90;;
37781;SDS011;23621;50.878;4.584;2024-02-14T02:10:53;6.93;;;4.88;;
37781;SDS011;23621;50.878;4.584;2024-02-14T02:12:59;5.22;;;4.72;;
37781;SDS011;23621;50.878;4.584;2024-02-14T02:15:00;8.05;;;5.45;;
37781;SDS011;23621;50.878;4.584;2024-02-14T02:17:02;6.05;;;5.20;;
37781;SDS011;23621;50.878;4.584;2024-02-14T02:19:07;8.43;;;4.63;;
37781;SDS011;23621;50.878;4.584;2024-02-14T02:21:09;5.57;;;5.07;;
37781;SDS011;23621;50.878;4.584;2024-02-14T02:23:13;5.35;;;4.85;;
37781;SDS011;23621;50.878;4.584;2024-02-14T02:25:16;5.60;;;5.05;;
37781;SDS011;23621;50.878;4.584;2024-02-14T02:27:17;5.80;;;5.20;;
37781;SDS011;23621;50.878;4.584;2024-02-14T02:29:18;7.10;;;4.90;;
37781;SDS011;23621;50.878;4.584;2024-02-14T02:31:19;6.22;;;4.85;;
37781;SDS011;23621;50.878;4.584;2024-02-14T02:33:21;8.38;;;5.28;;
37781;SDS011;23621;50.878;4.584;2024-02-14T02:35:22;5.15;;;4.65;;
37781;SDS011;23621;50.878;4.584;2024-02-14T02:37:25;7.90;;;5.15;;
37781;SDS011;23621;50.878;4.584;2024-02-14T02:39:29;5.50;;;5.10;;
37781;SDS011;23621;50.878;4.584;2024-02-14T02:41:30;5.45;;;4.95;;
37781;SDS011;23621;50.878;4.584;2024-02-14T02:43:34;5.70;;;4.75;;
37781;SDS011;23621;50.878;4.584;2024-02-14T02:45:34;5.30;;;4.80;;
37781;SDS011;23621;50.878;4.584;2024-02-14T02:47:35;5.75;;;5.20;;
37781;SDS011;23621;50.878;4.584;2024-02-14T02:49:36;8.00;;;5.53;;
37781;SDS011;23621;50.878;4.584;2024-02-14T02:51:37;5.38;;;4.88;;
37781;SDS011;23621;50.878;4.584;2024-02-14T02:53:37;5.80;;;5.03;;
37781;SDS011;23621;50.878;4.584;2024-02-14T02:55:38;5.25;;;4.75;;
37781;SDS011;23621;50.878;4.584;2024-02-14T02:57:40;5.70;;;5.05;;
37781;SDS011;23621;50.878;4.584;2024-02-14T02:59:41;5.55;;;4.88;;
37781;SDS011;23621;50.878;4.584;2024-02-14T03:01:44;6.55;;;5.03;;
37781;SDS011;23621;50.878;4.584;2024-02-14T03:03:44;5.90;;;5.20;;
37781;SDS011;23621;50.878;4.584;2024-02-14T03:05:45;9.02;;;5.50;;
37781;SDS011;23621;50.878;4.584;2024-02-14T03:07:46;6.28;;;5.38;;
37781;SDS011;23621;50.878;4.584;2024-02-14T03:09:48;5.90;;;5.40;;
37781;SDS011;23621;50.878;4.584;2024-02-14T03:11:49;7.38;;;5.82;;
37781;SDS011;23621;50.878;4.584;2024-02-14T03:13:50;5.90;;;5.30;;
37781;SDS011;23621;50.878;4.584;2024-02-14T03:15:51;7.13;;;5.80;;
37781;SDS011;23621;50.878;4.584;2024-02-14T03:17:52;6.65;;;5.95;;
37781;SDS011;23621;50.878;4.584;2024-02-14T03:19:53;6.18;;;5.68;;
37781;SDS011;23621;50.878;4.584;2024-02-14T03:21:56;7.95;;;6.00;;
37781;SDS011;23621;50.878;4.584;2024-02-14T03:23:57;6.90;;;6.07;;
37781;SDS011;23621;50.878;4.584;2024-02-14T03:25:58;7.13;;;6.13;;
37781;SDS011;23621;50.878;4.584;2024-02-14T03:27:59;8.10;;;6.63;;
37781;SDS011;23621;50.878;4.584;2024-02-14T03:29:59;9.45;;;6.47;;
37781;SDS011;23621;50.878;4.584;2024-02-14T03:32:02;10.32;;;6.70;;
37781;SDS011;23621;50.878;4.584;2024-02-14T03:34:04;8.70;;;6.22;;
37781;SDS011;23621;50.878;4.584;2024-02-14T03:36:05;10.93;;;7.05;;
37781;SDS011;23621;50.878;4.584;2024-02-14T03:38:06;8.50;;;6.20;;
37781;SDS011;23621;50.878;4.584;2024-02-14T03:40:08;10.93;;;6.70;;
37781;SDS011;23621;50.878;4.584;2024-02-14T03:42:09;7.90;;;6.43;;
37781;SDS011;23621;50.878;4.584;2024-02-14T03:44:10;8.02;;;5.97;;
37781;SDS011;23621;50.878;4.584;2024-02-14T03:46:10;8.38;;;6.55;;
37781;SDS011;23621;50.878;4.584;2024-02-14T03:48:13;6.93;;;6.25;;
37781;SDS011;23621;50.878;4.584;2024-02-14T03:50:13;7.75;;;6.30;;
37781;SDS011;23621;50.878;4.584;2024-02-14T03:52:15;7.07;;;6.28;;
37781;SDS011;23621;50.878;4.584;2024-02-14T03:54:15;8.52;;;6.40;;
37781;SDS011;23621;50.878;4.584;2024-02-14T03:56:16;7.20;;;6.50;;
37781;SDS011;23621;50.878;4.584;2024-02-14T03:58:17;7.78;;;6.60;;
37781;SDS011;23621;50.878;4.584;2024-02-14T04:00:22;8.40;;;6.85;;
37781;SDS011;23621;50.878;4.584;2024-02-14T04:02:23;10.07;;;6.60;;
37781;SDS011;23621;50.878;4.584;2024-02-14T04:04:23;7.25;;;6.50;;
37781;SDS011;23621;50.878;4.584;2024-02-14T04:06:24;8.65;;;7.05;;
37781;SDS011;23621;50.878;4.584;2024-02-14T04:08:26;9.00;;;7.20;;
37781;SDS011;23621;50.878;4.584;2024-02-14T04:10:27;10.07;;;7.07;;
37781;SDS011;23621;50.878;4.584;2024-02-14T04:12:28;7.93;;;7.00;;
37781;SDS011;23621;50.878;4.584;2024-02-14T04:14:28;9.55;;;6.65;;
37781;SDS011;23621;50.878;4.584;2024-02-14T04:16:29;8.13;;;7.20;;
37781;SDS011;23621;50.878;4.584;2024-02-14T04:18:30;7.32;;;6.10;;
37781;SDS011;23621;50.878;4.584;2024-02-14T04:20:30;8.60;;;7.30;;
37781;SDS011;23621;50.878;4.584;2024-02-14T04:22:31;8.05;;;6.30;;
37781;SDS011;23621;50.878;4.584;2024-02-14T04:24:34;7.80;;;6.70;;
37781;SDS011;23621;50.878;4.584;2024-02-14T04:26:35;7.68;;;6.47;;
37781;SDS011;23621;50.878;4.584;2024-02-14T04:28:38;7.82;;;7.00;;
37781;SDS011;23621;50.878;4.584;2024-02-14T04:30:40;9.23;;;6.57;;
37781;SDS011;23621;50.878;4.584;2024-02-14T04:32:41;8.32;;;6.45;;
37781;SDS011;23621;50.878;4.584;2024-02-14T04:34:43;11.07;;;7.47;;
37781;SDS011;23621;50.878;4.584;2024-02-14T04:36:44;8.05;;;6.80;;
37781;SDS011;23621;50.878;4.584;2024-02-14T04:38:44;8.35;;;7.07;;
37781;SDS011;23621;50.878;4.584;2024-02-14T04:40:46;7.82;;;6.45;;
37781;SDS011;23621;50.878;4.584;2024-02-14T04:42:48;9.35;;;6.80;;
37781;SDS011;23621;50.878;4.584;2024-02-14T04:44:48;7.57;;;6.60;;
37781;SDS011;23621;50.878;4.584;2024-02-14T04:46:49;8.00;;;6.72;;
37781;SDS011;23621;50.878;4.584;2024-02-14T04:48:50;8.00;;;6.78;;
37781;SDS011;23621;50.878;4.584;2024-02-14T04:50:50;7.30;;;6.47;;
37781;SDS011;23621;50.878;4.584;2024-02-14T04:52:52;7.72;;;6.93;;
37781;SDS011;23621;50.878;4.584;2024-02-14T04:54:52;8.52;;;7.03;;
37781;SDS011;23621;50.878;4.584;2024-02-14T04:56:53;8.48;;;7.00;;
37781;SDS011;23621;50.878;4.584;2024-02-14T04:58:54;9.13;;;6.78;;
37781;SDS011;23621;50.878;4.584;2024-02-14T05:00:55;8.85;;;7.05;;
37781;SDS011;23621;50.878;4.584;2024-02-14T05:02:56;7.97;;;6.78;;
37781;SDS011;23621;50.878;4.584;2024-02-14T05:04:57;8.27;;;6.72;;
37781;SDS011;23621;50.878;4.584;2024-02-14T05:06:58;9.07;;;6.72;;
37781;SDS011;23621;50.878;4.584;2024-02-14T05:08:59;9.13;;;7.55;;
37781;SDS011;23621;50.878;4.584;2024-02-14T05:11:00;8.13;;;7.32;;
37781;SDS011;23621;50.878;4.584;2024-02-14T05:13:00;9.25;;;7.45;;
37781;SDS011;23621;50.878;4.584;2024-02-14T05:15:04;9.18;;;8.15;;
37781;SDS011;23621;50.878;4.584;2024-02-14T05:17:06;10.05;;;7.63;;
37781;SDS011;23621;50.878;4.584;2024-02-14T05:19:07;11.45;;;8.20;;
37781;SDS011;23621;50.878;4.584;2024-02-14T05:21:08;10.55;;;8.10;;
37781;SDS011;23621;50.878;4.584;2024-02-14T05:23:09;11.38;;;7.95;;
37781;SDS011;23621;50.878;4.584;2024-02-14T05:25:11;12.50;;;8.80;;
37781;SDS011;23621;50.878;4.584;2024-02-14T05:27:11;9.55;;;8.40;;
37781;SDS011;23621;50.878;4.584;2024-02-14T05:29:12;9.80;;;7.70;;
37781;SDS011;23621;50.878;4.584;2024-02-14T05:31:13;9.57;;;8.18;;
37781;SDS011;23621;50.878;4.584;2024-02-14T05:33:15;13.13;;;8.52;;
37781;SDS011;23621;50.878;4.584;2024-02-14T05:35:16;9.50;;;8.45;;
37781;SDS011;23621;50.878;4.584;2024-02-14T05:37:16;9.60;;;8.60;;
37781;SDS011;23621;50.878;4.584;2024-02-14T05:39:17;9.85;;;8.32;;
37781;SDS011;23621;50.878;4.584;2024-02-14T05:41:19;9.27;;;8.02;;
37781;SDS011;23621;50.878;4.584;2024-02-14T05:43:19;9.63;;;7.63;;
37781;SDS011;23621;50.878;4.584;2024-02-14T05:45:21;10.68;;;8.40;;
37781;SDS011;23621;50.878;4.584;2024-02-14T05:47:22;9.88;;;7.97;;
37781;SDS011;23621;50.878;4.584;2024-02-14T05:49:22;10.02;;;8.80;;
37781;SDS011;23621;50.878;4.584;2024-02-14T05:51:24;11.13;;;8.63;;
37781;SDS011;23621;50.878;4.584;2024-02-14T05:53:25;8.82;;;7.93;;
37781;SDS011;23621;50.878;4.584;2024-02-14T05:55:26;11.77;;;8.02;;
37781;SDS011;23621;50.878;4.584;2024-02-14T05:57:26;9.65;;;8.10;;
37781;SDS011;23621;50.878;4.584;2024-02-14T05:59:27;10.15;;;7.80;;
37781;SDS011;23621;50.878;4.584;2024-02-14T06:01:28;10.88;;;8.48;;
37781;SDS011;23621;50.878;4.584;2024-02-14T06:03:28;10.00;;;8.82;;
37781;SDS011;23621;50.878;4.584;2024-02-14T06:05:29;11.63;;;8.02;;
37781;SDS011;23621;50.878;4.584;2024-02-14T06:07:30;10.07;;;8.40;;
37781;SDS011;23621;50.878;4.584;2024-02-14T06:09:30;10.02;;;8.00;;
37781;SDS011;23621;50.878;4.584;2024-02-14T06:11:31;10.65;;;8.35;;
37781;SDS011;23621;50.878;4.584;2024-02-14T06:13:32;11.13;;;8.18;;
37781;SDS011;23621;50.878;4.584;2024-02-14T06:15:33;11.07;;;7.88;;
37781;SDS011;23621;50.878;4.584;2024-02-14T06:17:34;10.38;;;8.32;;
37781;SDS011;23621;50.878;4.584;2024-02-14T06:19:35;8.02;;;7.00;;
37781;SDS011;23621;50.878;4.584;2024-02-14T06:21:36;9.50;;;7.55;;
37781;SDS011;23621;50.878;4.584;2024-02-14T06:23:37;11.15;;;7.63;;
37781;SDS011;23621;50.878;4.584;2024-02-14T06:25:38;12.45;;;7.88;;
37781;SDS011;23621;50.878;4.584;2024-02-14T06:27:39;9.43;;;8.13;;
37781;SDS011;23621;50.878;4.584;2024-02-14T06:29:43;9.20;;;7.40;;
37781;SDS011;23621;50.878;4.584;2024-02-14T06:31:44;8.85;;;7.95;;
37781;SDS011;23621;50.878;4.584;2024-02-14T06:33:44;9.73;;;7.63;;
37781;SDS011;23621;50.878;4.584;2024-02-14T06:35:45;13.13;;;8.52;;
37781;SDS011;23621;50.878;4.584;2024-02-14T06:37:46;11.05;;;8.23;;
37781;SDS011;23621;50.878;4.584;2024-02-14T06:39:46;10.00;;;7.72;;
37781;SDS011;23621;50.878;4.584;2024-02-14T06:41:48;11.30;;;7.90;;
37781;SDS011;23621;50.878;4.584;2024-02-14T06:43:49;11.90;;;8.32;;
37781;SDS011;23621;50.878;4.584;2024-02-14T06:45:49;9.55;;;8.02;;
37781;SDS011;23621;50.878;4.584;2024-02-14T06:47:50;11.15;;;8.80;;
37781;SDS011;23621;50.878;4.584;2024-02-14T06:49:51;12.60;;;8.40;;
37781;SDS011;23621;50.878;4.584;2024-02-14T06:51:51;11.43;;;8.20;;
37781;SDS011;23621;50.878;4.584;2024-02-14T06:53:52;9.40;;;7.72;;
37781;SDS011;23621;50.878;4.584;2024-02-14T06:55:53;10.82;;;8.02;;
37781;SDS011;23621;50.878;4.584;2024-02-14T06:57:53;12.85;;;8.35;;
37781;SDS011;23621;50.878;4.584;2024-02-14T06:59:54;9.48;;;7.55;;
37781;SDS011;23621;50.878;4.584;2024-02-14T07:01:55;9.15;;;7.25;;
37781;SDS011;23621;50.878;4.584;2024-02-14T07:03:55;10.43;;;8.02;;
37781;SDS011;23621;50.878;4.584;2024-02-14T07:05:56;10.90;;;7.80;;
37781;SDS011;23621;50.878;4.584;2024-02-14T07:07:57;14.00;;;7.97;;
37781;SDS011;23621;50.878;4.584;2024-02-14T07:09:58;10.55;;;8.05;;
37781;SDS011;23621;50.878;4.584;2024-02-14T07:11:59;12.90;;;8.70;;
37781;SDS011;23621;50.878;4.584;2024-02-14T07:13:59;11.48;;;8.90;;
37781;SDS011;23621;50.878;4.584;2024-02-14T07:16:00;12.30;;;8.60;;
37781;SDS011;23621;50.878;4.584;2024-02-14T07:18:01;10.05;;;8.80;;
37781;SDS011;23621;50.878;4.584;2024-02-14T07:20:02;13.95;;;8.35;;
37781;SDS011;23621;50.878;4.584;2024-02-14T07:22:03;12.77;;;8.55;;
37781;SDS011;23621;50.878;4.584;2024-02-14T07:24:04;10.70;;;8.30;;
37781;SDS011;23621;50.878;4.584;2024-02-14T07:26:05;11.05;;;8.23;;
37781;SDS011;23621;50.878;4.584;2024-02-14T07:28:06;8.57;;;7.78;;
37781;SDS011;23621;50.878;4.584;2024-02-14T07:30:07;9.38;;;7.68;;
37781;SDS011;23621;50.878;4.584;2024-02-14T07:32:08;10.48;;;7.95;;
37781;SDS011;23621;50.878;4.584;2024-02-14T07:34:09;11.15;;;8.52;;
37781;SDS011;23621;50.878;4.584;2024-02-14T07:36:09;11.57;;;8.63;;
37781;SDS011;23621;50.878;4.584;2024-02-14T07:38:11;11.02;;;8.00;;
37781;SDS011;23621;50.878;4.584;2024-02-14T07:40:11;12.88;;;7.93;;
37781;SDS011;23621;50.878;4.584;2024-02-14T07:42:12;11.80;;;8.32;;
37781;SDS011;23621;50.878;4.584;2024-02-14T07:44:13;9.98;;;8.65;;
37781;SDS011;23621;50.878;4.584;2024-02-14T07:46:20;9.55;;;7.88;;
37781;SDS011;23621;50.878;4.584;2024-02-14T07:48:22;11.88;;;8.32;;
37781;SDS011;23621;50.878;4.584;2024-02-14T07:50:22;9.93;;;7.30;;
37781;SDS011;23621;50.878;4.584;2024-02-14T07:52:23;10.38;;;7.82;;
37781;SDS011;23621;50.878;4.584;2024-02-14T07:54:24;11.70;;;8.07;;
37781;SDS011;23621;50.878;4.584;2024-02-14T07:56:24;11.57;;;8.25;;
37781;SDS011;23621;50.878;4.584;2024-02-14T07:58:25;10.60;;;8.40;;
37781;SDS011;23621;50.878;4.584;2024-02-14T08:00:26;9.88;;;7.78;;
37781;SDS011;23621;50.878;4.584;2024-02-14T08:02:26;9.18;;;8.23;;
37781;SDS011;23621;50.878;4.584;2024-02-14T08:04:27;13.07;;;7.95;;
37781;SDS011;23621;50.878;4.584;2024-02-14T08:06:28;8.52;;;7.63;;
37781;SDS011;23621;50.878;4.584;2024-02-14T08:08:28;11.00;;;7.25;;
37781;SDS011;23621;50.878;4.584;2024-02-14T08:10:29;9.45;;;7.63;;
37781;SDS011;23621;50.878;4.584;2024-02-14T08:12:30;9.68;;;7.90;;
37781;SDS011;23621;50.878;4.584;2024-02-14T08:14:31;11.10;;;8.02;;
37781;SDS011;23621;50.878;4.584;2024-02-14T08:16:32;9.02;;;8.10;;
37781;SDS011;23621;50.878;4.584;2024-02-14T08:18:33;9.65;;;8.52;;
37781;SDS011;23621;50.878;4.584;2024-02-14T08:20:33;10.10;;;8.38;;
37781;SDS011;23621;50.878;4.584;2024-02-14T08:22:34;10.43;;;7.97;;
37781;SDS011;23621;50.878;4.584;2024-02-14T08:24:35;12.35;;;8.50;;
37781;SDS011;23621;50.878;4.584;2024-02-14T08:26:35;9.70;;;8.30;;
37781;SDS011;23621;50.878;4.584;2024-02-14T08:28:37;10.85;;;8.38;;
37781;SDS011;23621;50.878;4.584;2024-02-14T08:30:38;11.82;;;9.18;;
37781;SDS011;23621;50.878;4.584;2024-02-14T08:32:38;12.75;;;8.80;;
37781;SDS011;23621;50.878;4.584;2024-02-14T08:34:39;13.43;;;9.25;;
37781;SDS011;23621;50.878;4.584;2024-02-14T08:36:40;11.30;;;9.02;;
37781;SDS011;23621;50.878;4.584;2024-02-14T08:38:41;10.02;;;8.45;;
37781;SDS011;23621;50.878;4.584;2024-02-14T08:40:42;10.55;;;8.75;;
37781;SDS011;23621;50.878;4.584;2024-02-14T08:42:42;10.30;;;9.23;;
37781;SDS011;23621;50.878;4.584;2024-02-14T08:44:43;11.82;;;9.48;;
37781;SDS011;23621;50.878;4.584;2024-02-14T08:46:44;13.48;;;9.27;;
37781;SDS011;23621;50.878;4.584;2024-02-14T08:48:48;10.20;;;9.15;;
37781;SDS011;23621;50.878;4.584;2024-02-14T08:50:49;13.00;;;9.05;;
37781;SDS011;23621;50.878;4.584;2024-02-14T08:52:50;12.98;;;9.57;;
37781;SDS011;23621;50.878;4.584;2024-02-14T08:54:50;11.60;;;9.90;;
37781;SDS011;23621;50.878;4.584;2024-02-14T08:56:51;13.13;;;9.77;;
37781;SDS011;23621;50.878;4.584;2024-02-14T08:58:55;14.45;;;10.52;;
37781;SDS011;23621;50.878;4.584;2024-02-14T09:00:56;11.70;;;10.38;;
37781;SDS011;23621;50.878;4.584;2024-02-14T09:02:57;13.27;;;9.65;;
37781;SDS011;23621;50.878;4.584;2024-02-14T09:05:00;11.63;;;10.40;;
37781;SDS011;23621;50.878;4.584;2024-02-14T09:07:01;15.50;;;9.77;;
37781;SDS011;23621;50.878;4.584;2024-02-14T09:09:02;14.43;;;9.40;;
37781;SDS011;23621;50.878;4.584;2024-02-14T09:11:03;13.70;;;9.65;;
37781;SDS011;23621;50.878;4.584;2024-02-14T09:13:04;11.45;;;9.70;;
37781;SDS011;23621;50.878;4.584;2024-02-14T09:15:07;10.85;;;9.52;;
37781;SDS011;23621;50.878;4.584;2024-02-14T09:17:08;14.35;;;10.05;;
37781;SDS011;23621;50.878;4.584;2024-02-14T09:19:10;12.07;;;9.90;;
37781;SDS011;23621;50.878;4.584;2024-02-14T09:21:12;10.50;;;9.50;;
37781;SDS011;23621;50.878;4.584;2024-02-14T09:23:15;11.60;;;10.27;;
37781;SDS011;23621;50.878;4.584;2024-02-14T09:25:22;10.90;;;9.80;;
37781;SDS011;23621;50.878;4.584;2024-02-14T09:27:23;12.60;;;10.25;;
37781;SDS011;23621;50.878;4.584;2024-02-14T09:29:24;11.05;;;9.95;;
37781;SDS011;23621;50.878;4.584;2024-02-14T09:31:25;14.95;;;10.45;;
37781;SDS011;23621;50.878;4.584;2024-02-14T09:33:25;12.80;;;10.20;;
37781;SDS011;23621;50.878;4.584;2024-02-14T09:35:26;13.32;;;10.45;;
37781;SDS011;23621;50.878;4.584;2024-02-14T09:37:27;12.23;;;10.00;;
37781;SDS011;23621;50.878;4.584;2024-02-14T09:39:28;12.90;;;10.30;;
37781;SDS011;23621;50.878;4.584;2024-02-14T09:41:36;13.27;;;10.32;;
37781;SDS011;23621;50.878;4.584;2024-02-14T09:43:40;11.40;;;10.20;;
37781;SDS011;23621;50.878;4.584;2024-02-14T09:45:44;11.35;;;10.10;;
37781;SDS011;23621;50.878;4.584;2024-02-14T09:47:45;11.35;;;10.25;;
37781;SDS011;23621;50.878;4.584;2024-02-14T09:49:48;11.10;;;9.15;;
37781;SDS011;23621;50.878;4.584;2024-02-14T09:51:51;10.63;;;9.23;;
37781;SDS011;23621;50.878;4.584;2024-02-14T09:53:53;12.10;;;9.40;;
37781;SDS011;23621;50.878;4.584;2024-02-14T09:55:54;11.15;;;9.07;;
37781;SDS011;23621;50.878;4.584;2024-02-14T09:57:56;10.05;;;9.05;;
37781;SDS011;23621;50.878;4.584;2024-02-14T09:59:58;10.30;;;8.65;;
37781;SDS011;23621;50.878;4.584;2024-02-14T10:02:01;9.55;;;8.27;;
37781;SDS011;23621;50.878;4.584;2024-02-14T10:04:02;8.57;;;7.45;;
37781;SDS011;23621;50.878;4.584;2024-02-14T10:06:03;8.73;;;6.72;;
37781;SDS011;23621;50.878;4.584;2024-02-14T10:08:04;7.30;;;6.60;;
37781;SDS011;23621;50.878;4.584;2024-02-14T10:10:06;7.57;;;6.50;;
37781;SDS011;23621;50.878;4.584;2024-02-14T10:12:07;7.05;;;6.40;;
37781;SDS011;23621;50.878;4.584;2024-02-14T10:14:11;7.35;;;6.05;;
37781;SDS011;23621;50.878;4.584;2024-02-14T10:16:14;7.57;;;5.78;;
37781;SDS011;23621;50.878;4.584;2024-02-14T10:18:14;6.38;;;5.78;;
37781;SDS011;23621;50.878;4.584;2024-02-14T10:20:17;6.90;;;6.03;;
37781;SDS011;23621;50.878;4.584;2024-02-14T10:22:17;6.50;;;5.90;;
37781;SDS011;23621;50.878;4.584;2024-02-14T10:24:18;5.57;;;5.07;;
37781;SDS011;23621;50.878;4.584;2024-02-14T10:26:19;5.40;;;4.90;;
37781;SDS011;23621;50.878;4.584;2024-02-14T10:28:20;6.30;;;5.70;;
37781;SDS011;23621;50.878;4.584;2024-02-14T10:30:21;5.75;;;5.18;;
37781;SDS011;23621;50.878;4.584;2024-02-14T10:32:22;5.10;;;4.60;;
37781;SDS011;23621;50.878;4.584;2024-02-14T10:34:25;4.85;;;4.05;;
37781;SDS011;23621;50.878;4.584;2024-02-14T10:36:27;5.10;;;4.60;;
37781;SDS011;23621;50.878;4.584;2024-02-14T10:38:30;4.45;;;4.03;;
37781;SDS011;23621;50.878;4.584;2024-02-14T10:40:32;4.65;;;4.15;;
37781;SDS011;23621;50.878;4.584;2024-02-14T10:42:34;4.20;;;3.80;;
37781;SDS011;23621;50.878;4.584;2024-02-14T10:44:35;4.40;;;4.00;;
37781;SDS011;23621;50.878;4.584;2024-02-14T10:46:37;3.75;;;3.45;;
37781;SDS011;23621;50.878;4.584;2024-02-14T10:48:39;3.65;;;3.35;;
37781;SDS011;23621;50.878;4.584;2024-02-14T10:50:41;3.42;;;3.17;;
37781;SDS011;23621;50.878;4.584;2024-02-14T10:52:43;3.33;;;3.13;;
37781;SDS011;23621;50.878;4.584;2024-02-14T10:54:49;3.47;;;3.17;;
37781;SDS011;23621;50.878;4.584;2024-02-14T10:56:58;3.50;;;3.20;;
37781;SDS011;23621;50.878;4.584;2024-02-14T10:59:00;3.25;;;2.95;;
37781;SDS011;23621;50.878;4.584;2024-02-14T11:01:02;3.42;;;3.00;;
37781;SDS011;23621;50.878;4.584;2024-02-14T11:03:03;4.18;;;2.70;;
37781;SDS011;23621;50.878;4.584;2024-02-14T11:05:05;2.95;;;2.60;;
37781;SDS011;23621;50.878;4.584;2024-02-14T11:07:11;3.50;;;3.17;;
37781;SDS011;23621;50.878;4.584;2024-02-14T11:09:13;3.00;;;2.67;;
37781;SDS011;23621;50.878;4.584;2024-02-14T11:11:15;3.42;;;3.00;;
37781;SDS011;23621;50.878;4.584;2024-02-14T11:13:16;4.80;;;2.80;;
37781;SDS011;23621;50.878;4.584;2024-02-14T11:15:22;3.15;;;2.63;;
37781;SDS011;23621;50.878;4.584;2024-02-14T11:17:24;2.72;;;2.53;;
37781;SDS011;23621;50.878;4.584;2024-02-14T11:19:30;3.13;;;2.80;;
37781;SDS011;23621;50.878;4.584;2024-02-14T11:21:36;2.78;;;2.50;;
37781;SDS011;23621;50.878;4.584;2024-02-14T11:23:52;2.42;;;2.22;;
37781;SDS011;23621;50.878;4.584;2024-02-14T11:26:00;2.90;;;2.28;;
37781;SDS011;23621;50.878;4.584;2024-02-14T11:28:18;2.80;;;2.50;;
37781;SDS011;23621;50.878;4.584;2024-02-14T11:30:28;3.10;;;2.17;;
37781;SDS011;23621;50.878;4.584;2024-02-14T11:32:31;2.50;;;2.30;;
37781;SDS011;23621;50.878;4.584;2024-02-14T11:34:32;2.90;;;2.60;;
37781;SDS011;23621;50.878;4.584;2024-02-14T11:36:33;3.15;;;2.30;;
37781;SDS011;23621;50.878;4.584;2024-02-14T11:38:35;2.50;;;2.30;;
37781;SDS011;23621;50.878;4.584;2024-02-14T11:40:36;2.50;;;2.30;;
37781;SDS011;23621;50.878;4.584;2024-02-14T11:42:40;2.83;;;2.50;;
37781;SDS011;23621;50.878;4.584;2024-02-14T11:44:41;3.20;;;2.63;;
37781;SDS011;23621;50.878;4.584;2024-02-14T11:46:42;3.08;;;2.78;;
37781;SDS011;23621;50.878;4.584;2024-02-14T11:48:43;2.58;;;2.38;;
37781;SDS011;23621;50.878;4.584;2024-02-14T11:50:48;3.05;;;2.80;;
37781;SDS011;23621;50.878;4.584;2024-02-14T11:52:49;6.10;;;2.63;;
37781;SDS011;23621;50.878;4.584;2024-02-14T11:54:50;3.10;;;2.80;;
37781;SDS011;23621;50.878;4.584;2024-02-14T11:56:50;3.10;;;2.38;;
37781;SDS011;23621;50.878;4.584;2024-02-14T11:58:51;3.60;;;2.50;;
37781;SDS011;23621;50.878;4.584;2024-02-14T12:00:52;4.22;;;2.70;;
37781;SDS011;23621;50.878;4.584;2024-02-14T12:02:53;2.90;;;2.60;;
37781;SDS011;23621;50.878;4.584;2024-02-14T12:04:55;3.13;;;2.65;;
37781;SDS011;23621;50.878;4.584;2024-02-14T12:06:56;3.20;;;2.90;;
37781;SDS011;23621;50.878;4.584;2024-02-14T12:08:56;4.28;;;2.92;;